createdAt,value
2018-09-15T00:00:23.006Z,67.86
2018-09-15T00:01:25.665Z,68.61
2018-09-15T00:02:28.344Z,68.74
2018-09-15T00:03:30.999Z,68.36
2018-09-15T00:04:33.642Z,67.69
2018-09-15T00:05:36.328Z,68.10
2018-09-15T00:06:39.002Z,68.63
2018-09-15T00:07:41.670Z,68.46
2018-09-15T00:08:44.535Z,68.07
2018-09-15T00:09:47.178Z,67.59
2018-09-15T00:10:50.125Z,68.65
2018-09-15T00:11:52.818Z,67.90
2018-09-15T00:12:55.554Z,68.46
2018-09-15T00:13:58.227Z,67.83
2018-09-15T00:15:00.898Z,68.18
2018-09-15T00:16:03.624Z,68.32
2018-09-15T00:17:06.342Z,69.29
2018-09-15T00:18:11.671Z,68.84
2018-09-15T00:19:14.335Z,69.82
2018-09-15T00:20:17.006Z,68.78
2018-09-15T00:21:19.666Z,69.11
2018-09-15T00:22:22.340Z,69.27
2018-09-15T00:23:24.974Z,69.26
2018-09-15T00:24:27.663Z,69.36
2018-09-15T00:25:30.320Z,68.82
2018-09-15T00:26:32.972Z,70.11
2018-09-15T00:27:35.650Z,69.65
2018-09-15T00:28:38.316Z,69.98
2018-09-15T00:29:40.970Z,70.35
2018-09-15T00:30:43.634Z,70.33
2018-09-15T00:31:46.378Z,70.48
2018-09-15T00:32:49.023Z,70.36
2018-09-15T00:33:51.689Z,70.29
2018-09-15T00:34:54.368Z,70.72
2018-09-15T00:35:57.011Z,70.87
2018-09-15T00:36:59.654Z,69.84
2018-09-15T00:38:02.314Z,69.97
2018-09-15T00:39:08.304Z,70.38
2018-09-15T00:40:10.965Z,69.83
2018-09-15T00:41:13.608Z,69.86
2018-09-15T00:42:16.269Z,69.93
2018-09-15T00:43:18.914Z,70.05
2018-09-15T00:44:21.545Z,70.35
2018-09-15T00:45:24.289Z,70.66
2018-09-15T00:46:26.943Z,70.03
2018-09-15T00:47:29.602Z,70.94
2018-09-15T00:48:32.259Z,70.94
2018-09-15T00:49:34.916Z,70.91
2018-09-15T00:50:37.580Z,71.27
2018-09-15T00:51:40.221Z,70.86
2018-09-15T00:52:42.960Z,70.99
2018-09-15T00:53:45.609Z,70.40
2018-09-15T00:54:48.248Z,70.97
2018-09-15T00:55:50.906Z,71.42
2018-09-15T00:56:53.565Z,70.87
2018-09-15T00:57:56.201Z,71.48
2018-09-15T00:58:58.825Z,70.61
2018-09-15T01:00:01.484Z,70.89
2018-09-15T01:01:04.113Z,70.54
2018-09-15T01:02:06.757Z,71.20
2018-09-15T01:03:09.459Z,72.17
2018-09-15T01:04:12.111Z,71.68
2018-09-15T01:05:14.804Z,71.87
2018-09-15T01:06:17.530Z,71.33
2018-09-15T01:07:20.161Z,72.26
2018-09-15T01:08:22.801Z,72.38
2018-09-15T01:09:25.471Z,71.77
2018-09-15T01:10:28.145Z,72.24
2018-09-15T01:11:30.820Z,71.94
2018-09-15T01:12:33.764Z,72.33
2018-09-15T01:13:36.409Z,72.75
2018-09-15T01:14:39.368Z,72.26
2018-09-15T01:15:42.053Z,73.84
2018-09-15T01:16:44.729Z,73.39
2018-09-15T01:17:47.388Z,73.50
2018-09-15T01:18:50.042Z,72.87
2018-09-15T01:19:52.764Z,73.98
2018-09-15T01:20:56.038Z,73.61
2018-09-15T01:21:58.747Z,74.47
2018-09-15T01:23:01.414Z,74.87
2018-09-15T01:24:04.125Z,75.46
2018-09-15T01:25:06.834Z,75.76
2018-09-15T01:26:09.626Z,75.58
2018-09-15T01:27:12.294Z,73.89
2018-09-15T01:28:14.930Z,73.60
2018-09-15T01:29:17.597Z,73.59
2018-09-15T01:30:20.281Z,72.95
2018-09-15T01:31:23.634Z,75.07
2018-09-15T01:32:27.478Z,73.67
2018-09-15T01:33:30.137Z,73.87
2018-09-15T01:34:32.807Z,75.82
2018-09-15T01:35:35.456Z,75.31
2018-09-15T01:36:38.107Z,75.34
2018-09-15T01:37:40.767Z,75.84
2018-09-15T01:38:43.453Z,74.60
2018-09-15T01:39:46.129Z,75.24
2018-09-15T01:40:48.810Z,74.68
2018-09-15T01:41:51.485Z,74.39
2018-09-15T01:42:54.162Z,74.22
2018-09-15T01:43:56.811Z,75.80
2018-09-15T01:44:59.463Z,75.51
2018-09-15T01:46:02.389Z,75.48
2018-09-15T01:47:05.026Z,76.17
2018-09-15T01:48:07.710Z,75.24
2018-09-15T01:49:10.352Z,76.60
2018-09-15T01:50:13.002Z,75.53
2018-09-15T01:51:15.677Z,75.41
2018-09-15T01:52:18.380Z,75.53
2018-09-15T01:53:21.019Z,75.94
2018-09-15T01:54:23.728Z,75.97
2018-09-15T01:55:26.490Z,76.96
2018-09-15T01:56:29.144Z,79.16
2018-09-15T01:57:31.822Z,76.33
2018-09-15T01:58:34.552Z,77.02
2018-09-15T01:59:37.217Z,77.01
2018-09-15T02:00:39.963Z,78.18
2018-09-15T02:01:42.606Z,78.70
2018-09-15T02:02:45.267Z,77.55
2018-09-15T02:03:47.911Z,78.75
2018-09-15T02:04:50.577Z,78.59
2018-09-15T02:05:53.241Z,78.29
2018-09-15T02:06:55.911Z,79.98
2018-09-15T02:07:58.575Z,78.49
2018-09-15T02:09:01.204Z,78.64
2018-09-15T02:10:03.885Z,80.88
2018-09-15T02:11:06.589Z,79.43
2018-09-15T02:12:09.227Z,79.11
2018-09-15T02:14:38.525Z,79.72
2018-09-15T02:15:41.220Z,80.00
2018-09-15T02:16:44.057Z,78.90
2018-09-15T02:17:46.745Z,81.21
2018-09-15T02:18:49.447Z,78.37
2018-09-15T02:19:52.176Z,78.53
2018-09-15T02:20:54.845Z,79.25
2018-09-15T02:21:57.499Z,78.11
2018-09-15T02:23:00.160Z,77.82
2018-09-15T02:24:02.833Z,78.16
2018-09-15T02:25:05.537Z,78.96
2018-09-15T02:26:08.308Z,79.32
2018-09-15T02:27:10.953Z,78.71
2018-09-15T02:28:13.604Z,80.40
2018-09-15T02:29:16.254Z,79.05
2018-09-15T02:30:18.924Z,78.62
2018-09-15T02:31:21.649Z,80.20
2018-09-15T02:32:24.293Z,81.91
2018-09-15T02:33:26.960Z,79.37
2018-09-15T02:34:29.638Z,82.05
2018-09-15T02:35:32.276Z,81.02
2018-09-15T02:36:35.024Z,80.62
2018-09-15T02:37:37.672Z,81.02
2018-09-15T02:38:40.350Z,80.00
2018-09-15T02:39:42.997Z,81.38
2018-09-15T02:40:45.655Z,80.89
2018-09-15T02:41:48.300Z,83.06
2018-09-15T02:42:50.953Z,81.54
2018-09-15T02:43:53.606Z,81.88
2018-09-15T02:44:56.247Z,81.42
2018-09-15T02:45:58.904Z,81.31
2018-09-15T02:47:01.563Z,80.18
2018-09-15T02:48:04.438Z,81.04
2018-09-15T02:49:07.080Z,79.87
2018-09-15T02:50:09.770Z,82.04
2018-09-15T02:51:12.560Z,82.40
2018-09-15T02:52:15.212Z,83.33
2018-09-15T02:53:17.860Z,82.93
2018-09-15T02:54:20.485Z,81.64
2018-09-15T02:55:23.146Z,82.22
2018-09-15T02:56:25.821Z,82.40
2018-09-15T02:57:28.468Z,80.70
2018-09-15T02:58:31.114Z,80.16
2018-09-15T02:59:33.754Z,80.32
2018-09-15T03:00:36.445Z,82.39
2018-09-15T03:01:39.099Z,82.51
2018-09-15T03:02:41.741Z,80.49
2018-09-15T03:03:44.418Z,82.50
2018-09-15T03:04:47.070Z,81.71
2018-09-15T03:05:49.715Z,82.89
2018-09-15T03:06:52.362Z,82.49
2018-09-15T03:07:55.026Z,83.38
2018-09-15T03:08:57.675Z,82.12
2018-09-15T03:10:00.331Z,81.81
2018-09-15T03:11:03.001Z,81.82
2018-09-15T03:12:05.741Z,81.95
2018-09-15T03:13:08.402Z,83.90
2018-09-15T03:14:11.042Z,83.39
2018-09-15T03:15:13.733Z,82.17
2018-09-15T03:16:16.389Z,84.29
2018-09-15T03:17:19.052Z,82.06
2018-09-15T03:18:21.707Z,81.72
2018-09-15T03:19:24.437Z,83.95
2018-09-15T03:20:27.116Z,84.55
2018-09-15T03:21:29.801Z,83.51
2018-09-15T03:22:32.786Z,83.74
2018-09-15T03:23:35.494Z,82.47
2018-09-15T03:24:38.685Z,81.85
2018-09-15T03:25:41.414Z,82.54
2018-09-15T03:26:44.065Z,83.47
2018-09-15T03:27:46.729Z,82.05
2018-09-15T03:28:49.414Z,82.73
2018-09-15T03:29:52.055Z,82.76
2018-09-15T03:32:12.213Z,84.04
2018-09-15T03:33:14.886Z,84.49
2018-09-15T03:34:17.541Z,83.02
2018-09-15T03:35:20.243Z,83.05
2018-09-15T03:36:22.924Z,83.64
2018-09-15T03:37:25.638Z,83.76
2018-09-15T03:38:28.272Z,82.80
2018-09-15T03:39:30.945Z,83.21
2018-09-15T03:40:33.766Z,82.72
2018-09-15T03:41:36.467Z,82.67
2018-09-15T03:42:39.119Z,84.37
2018-09-15T03:43:41.773Z,84.18
2018-09-15T03:46:11.117Z,84.25
2018-09-15T03:47:13.771Z,82.89
2018-09-15T03:48:16.452Z,83.78
2018-09-15T03:49:19.185Z,83.74
2018-09-15T03:50:21.846Z,84.78
2018-09-15T03:51:24.509Z,84.20
2018-09-15T03:52:27.182Z,82.84
2018-09-15T03:53:29.861Z,82.78
2018-09-15T03:54:32.553Z,83.31
2018-09-15T03:55:35.197Z,82.43
2018-09-15T03:56:37.840Z,82.31
2018-09-15T03:57:40.494Z,81.75
2018-09-15T03:58:43.187Z,82.46
2018-09-15T03:59:45.873Z,83.59
2018-09-15T04:00:48.911Z,82.60
2018-09-15T04:01:51.577Z,82.01
2018-09-15T04:02:54.248Z,82.26
2018-09-15T04:03:56.903Z,82.26
2018-09-15T04:04:59.551Z,82.78
2018-09-15T04:06:02.225Z,83.98
2018-09-15T04:07:04.921Z,83.49
2018-09-15T04:08:07.587Z,82.88
2018-09-15T04:09:11.198Z,82.81
2018-09-15T04:10:13.850Z,83.39
2018-09-15T04:11:16.493Z,82.88
2018-09-15T04:12:19.175Z,83.11
2018-09-15T04:13:21.843Z,82.63
2018-09-15T04:14:24.545Z,82.09
2018-09-15T04:15:27.217Z,82.25
2018-09-15T04:16:29.873Z,83.05
2018-09-15T04:17:32.517Z,82.65
2018-09-15T04:18:35.169Z,82.92
2018-09-15T04:19:37.803Z,83.23
2018-09-15T04:20:40.452Z,83.18
2018-09-15T04:21:43.128Z,83.42
2018-09-15T04:22:45.813Z,83.26
2018-09-15T04:23:48.479Z,84.29
2018-09-15T04:24:51.347Z,84.37
2018-09-15T04:25:54.082Z,84.33
2018-09-15T04:26:56.726Z,83.47
2018-09-15T04:27:59.432Z,84.15
2018-09-15T04:29:02.126Z,85.23
2018-09-15T04:30:05.214Z,85.73
2018-09-15T04:31:07.912Z,84.93
2018-09-15T04:32:10.605Z,84.39
2018-09-15T04:33:13.328Z,83.84
2018-09-15T04:34:16.043Z,83.49
2018-09-15T04:35:18.729Z,84.45
2018-09-15T04:36:21.423Z,85.60
2018-09-15T04:37:24.132Z,84.59
2018-09-15T04:38:26.827Z,84.63
2018-09-15T04:39:29.523Z,85.65
2018-09-15T04:40:32.269Z,84.99
2018-09-15T04:41:34.988Z,84.14
2018-09-15T04:42:37.653Z,85.55
2018-09-15T04:43:40.326Z,84.76
2018-09-15T04:44:42.989Z,84.14
2018-09-15T04:45:45.645Z,83.62
2018-09-15T04:46:48.304Z,84.28
2018-09-15T04:47:50.956Z,84.08
2018-09-15T04:48:53.608Z,83.51
2018-09-15T04:49:56.266Z,85.13
2018-09-15T04:50:58.960Z,84.28
2018-09-15T04:52:01.639Z,84.67
2018-09-15T04:53:04.351Z,83.52
2018-09-15T04:54:07.034Z,83.74
2018-09-15T04:55:09.778Z,85.29
2018-09-15T04:56:12.506Z,85.45
2018-09-15T04:57:15.187Z,84.34
2018-09-15T04:58:17.858Z,85.50
2018-09-15T04:59:20.529Z,85.61
2018-09-15T05:00:23.262Z,86.10
2018-09-15T05:01:25.920Z,85.62
2018-09-15T05:02:28.606Z,84.81
2018-09-15T05:03:31.378Z,84.02
2018-09-15T05:04:34.044Z,84.07
2018-09-15T05:05:36.719Z,85.34
2018-09-15T05:06:39.433Z,84.75
2018-09-15T05:07:42.082Z,85.01
2018-09-15T05:08:44.729Z,84.17
2018-09-15T05:09:47.405Z,84.03
2018-09-15T05:10:50.073Z,84.31
2018-09-15T05:11:52.742Z,83.74
2018-09-15T05:12:55.430Z,83.98
2018-09-15T05:13:58.085Z,84.68
2018-09-15T05:15:00.765Z,84.49
2018-09-15T05:16:03.447Z,83.88
2018-09-15T05:17:06.120Z,84.16
2018-09-15T05:18:08.750Z,83.92
2018-09-15T05:19:11.403Z,84.96
2018-09-15T05:20:14.126Z,83.63
2018-09-15T05:21:16.790Z,84.71
2018-09-15T05:22:19.518Z,83.80
2018-09-15T05:23:22.160Z,83.21
2018-09-15T05:24:24.804Z,83.61
2018-09-15T05:25:27.447Z,84.07
2018-09-15T05:26:30.326Z,84.63
2018-09-15T05:27:32.992Z,83.77
2018-09-15T05:28:35.663Z,83.76
2018-09-15T05:29:38.349Z,83.44
2018-09-15T05:30:41.019Z,84.13
2018-09-15T05:31:43.678Z,84.68
2018-09-15T05:32:46.349Z,84.68
2018-09-15T05:33:49.030Z,84.16
2018-09-15T05:36:01.245Z,84.76
2018-09-15T05:37:03.968Z,83.75
2018-09-15T05:38:06.628Z,84.81
2018-09-15T05:39:11.015Z,84.20
2018-09-15T05:40:13.673Z,84.24
2018-09-15T05:41:16.346Z,84.33
2018-09-15T05:42:19.033Z,84.27
2018-09-15T05:43:21.699Z,85.09
2018-09-15T05:44:24.348Z,84.82
2018-09-15T05:45:27.034Z,84.72
2018-09-15T05:46:29.702Z,84.58
2018-09-15T05:47:32.386Z,83.80
2018-09-15T05:48:35.067Z,83.96
2018-09-15T05:49:37.761Z,84.03
2018-09-15T05:50:40.441Z,84.08
2018-09-15T05:51:43.079Z,83.92
2018-09-15T05:52:45.732Z,83.94
2018-09-15T05:53:48.397Z,83.77
2018-09-15T05:54:51.174Z,84.26
2018-09-15T05:55:53.846Z,83.64
2018-09-15T05:56:56.510Z,83.29
2018-09-15T05:57:59.190Z,83.32
2018-09-15T05:59:01.899Z,82.95
2018-09-15T06:00:05.036Z,83.48
2018-09-15T06:01:07.769Z,83.47
2018-09-15T06:02:10.432Z,83.50
2018-09-15T06:03:14.897Z,83.49
2018-09-15T06:04:17.607Z,83.31
2018-09-15T06:05:20.364Z,82.88
2018-09-15T06:06:24.079Z,82.88
2018-09-15T06:07:26.789Z,83.12
2018-09-15T06:08:29.490Z,83.28
2018-09-15T06:09:32.185Z,83.01
2018-09-15T06:10:34.857Z,83.06
2018-09-15T06:11:37.586Z,83.10
2018-09-15T06:12:40.285Z,82.76
2018-09-15T06:13:43.012Z,82.63
2018-09-15T06:14:45.705Z,81.90
2018-09-15T06:15:48.409Z,82.55
2018-09-15T06:16:51.083Z,82.01
2018-09-15T06:17:53.828Z,82.09
2018-09-15T06:18:56.521Z,82.26
2018-09-15T06:19:59.231Z,81.98
2018-09-15T06:21:01.997Z,82.05
2018-09-15T06:22:04.717Z,81.79
2018-09-15T06:23:07.421Z,81.55
2018-09-15T06:24:10.118Z,81.89
2018-09-15T06:25:12.814Z,81.81
2018-09-15T06:26:16.012Z,81.73
2018-09-15T06:27:18.701Z,80.42
2018-09-15T06:28:21.657Z,79.56
2018-09-15T06:29:24.330Z,79.33
2018-09-15T06:30:27.042Z,79.35
2018-09-15T06:31:29.897Z,80.00
2018-09-15T06:32:32.658Z,78.50
2018-09-15T06:33:35.384Z,80.15
2018-09-15T06:34:38.095Z,79.54
2018-09-15T06:35:40.886Z,80.10
2018-09-15T06:36:43.632Z,78.70
2018-09-15T06:37:46.440Z,79.86
2018-09-15T06:38:49.150Z,77.81
2018-09-15T06:39:51.857Z,78.38
2018-09-15T06:40:54.561Z,79.14
2018-09-15T06:41:57.261Z,78.88
2018-09-15T06:42:59.945Z,77.39
2018-09-15T06:44:02.677Z,76.92
2018-09-15T06:45:05.427Z,78.85
2018-09-15T06:46:08.138Z,77.79
2018-09-15T06:47:10.821Z,76.88
2018-09-15T06:48:13.513Z,77.67
2018-09-15T06:49:16.225Z,78.35
2018-09-15T06:50:18.965Z,76.78
2018-09-15T06:51:21.707Z,77.14
2018-09-15T06:52:24.381Z,77.71
2018-09-15T06:53:27.103Z,77.82
2018-09-15T06:54:29.789Z,77.54
2018-09-15T06:55:32.460Z,77.82
2018-09-15T06:56:35.156Z,77.70
2018-09-15T06:57:37.871Z,78.15
2018-09-15T06:58:40.598Z,77.57
2018-09-15T06:59:43.367Z,78.18
2018-09-15T07:00:46.095Z,77.16
2018-09-15T07:01:49.289Z,77.55
2018-09-15T07:02:52.002Z,78.07
2018-09-15T07:03:54.708Z,77.58
2018-09-15T07:04:57.389Z,77.06
2018-09-15T07:06:00.083Z,75.86
2018-09-15T07:07:02.756Z,77.45
2018-09-15T07:08:05.547Z,77.20
2018-09-15T07:09:11.030Z,77.28
2018-09-15T07:10:13.728Z,75.93
2018-09-15T07:11:16.386Z,77.34
2018-09-15T07:12:19.040Z,76.29
2018-09-15T07:13:21.705Z,77.14
2018-09-15T07:14:24.368Z,75.86
2018-09-15T07:15:27.034Z,76.69
2018-09-15T07:16:29.885Z,76.37
2018-09-15T07:17:32.552Z,76.18
2018-09-15T07:18:35.208Z,76.53
2018-09-15T07:19:37.903Z,76.86
2018-09-15T07:20:40.616Z,75.45
2018-09-15T07:21:43.316Z,75.66
2018-09-15T07:22:45.983Z,76.62
2018-09-15T07:23:48.679Z,75.21
2018-09-15T07:24:51.428Z,76.01
2018-09-15T07:25:54.219Z,75.64
2018-09-15T07:26:56.862Z,75.09
2018-09-15T07:27:59.572Z,75.36
2018-09-15T07:29:02.285Z,74.20
2018-09-15T07:30:05.423Z,73.93
2018-09-15T07:31:08.191Z,73.98
2018-09-15T07:32:10.896Z,73.36
2018-09-15T07:33:13.616Z,74.51
2018-09-15T07:34:16.309Z,73.29
2018-09-15T07:35:19.015Z,73.37
2018-09-15T07:36:21.739Z,73.16
2018-09-15T07:37:24.463Z,73.43
2018-09-15T07:38:27.157Z,74.54
2018-09-15T07:39:29.990Z,74.51
2018-09-15T07:40:32.682Z,73.28
2018-09-15T07:41:35.372Z,73.89
2018-09-15T07:42:38.092Z,74.10
2018-09-15T07:43:40.815Z,72.64
2018-09-15T07:44:43.592Z,72.92
2018-09-15T07:45:46.277Z,71.93
2018-09-15T07:46:48.992Z,73.50
2018-09-15T07:47:51.689Z,73.42
2018-09-15T07:48:54.381Z,71.91
2018-09-15T07:49:57.093Z,72.68
2018-09-15T07:50:59.831Z,71.41
2018-09-15T07:52:02.540Z,72.25
2018-09-15T07:53:05.286Z,70.72
2018-09-15T07:54:07.952Z,71.22
2018-09-15T07:55:10.613Z,70.80
2018-09-15T07:56:13.315Z,70.62
2018-09-15T07:57:16.000Z,71.60
2018-09-15T07:58:18.665Z,71.85
2018-09-15T07:59:21.352Z,70.15
2018-09-15T08:00:24.112Z,71.96
2018-09-15T08:01:26.788Z,69.03
2018-09-15T08:02:29.445Z,68.94
2018-09-15T08:03:32.094Z,70.14
2018-09-15T08:04:34.756Z,69.72
2018-09-15T08:05:37.426Z,70.49
2018-09-15T08:06:40.088Z,70.74
2018-09-15T08:07:42.778Z,69.37
2018-09-15T08:08:45.446Z,67.69
2018-09-15T08:09:48.216Z,69.10
2018-09-15T08:10:50.875Z,68.13
2018-09-15T08:11:53.568Z,68.56
2018-09-15T08:12:56.235Z,70.09
2018-09-15T08:13:58.895Z,68.45
2018-09-15T08:15:01.592Z,69.17
2018-09-15T08:16:04.385Z,69.17
2018-09-15T08:17:07.230Z,69.43
2018-09-15T08:18:09.909Z,68.21
2018-09-15T08:19:12.603Z,69.09
2018-09-15T08:20:15.302Z,69.28
2018-09-15T08:21:17.984Z,68.47
2018-09-15T08:22:20.639Z,68.49
2018-09-15T08:23:23.324Z,69.23
2018-09-15T08:24:26.014Z,67.45
2018-09-15T08:25:28.705Z,68.76
2018-09-15T08:26:31.455Z,68.57
2018-09-15T08:27:34.124Z,68.68
2018-09-15T08:28:36.796Z,69.16
2018-09-15T08:29:39.499Z,68.34
2018-09-15T08:30:42.177Z,68.87
2018-09-15T08:31:45.058Z,68.61
2018-09-15T08:32:47.787Z,68.08
2018-09-15T08:33:50.457Z,68.71
2018-09-15T08:34:53.302Z,69.52
2018-09-15T08:35:55.970Z,67.93
2018-09-15T08:36:58.646Z,69.24
2018-09-15T08:38:01.301Z,68.72
2018-09-15T08:39:05.674Z,67.75
2018-09-15T08:40:08.344Z,67.68
2018-09-15T08:41:11.072Z,68.75
2018-09-15T08:42:13.745Z,69.20
2018-09-15T08:43:16.415Z,68.68
2018-09-15T08:44:19.166Z,69.43
2018-09-15T08:45:21.911Z,68.44
2018-09-15T08:46:24.574Z,69.05
2018-09-15T08:47:27.276Z,69.11
2018-09-15T08:48:29.984Z,69.53
2018-09-15T08:49:32.657Z,69.81
2018-09-15T08:50:35.330Z,69.00
2018-09-15T08:51:38.017Z,69.89
2018-09-15T08:52:40.828Z,69.68
2018-09-15T08:53:43.506Z,69.83
2018-09-15T08:54:46.166Z,69.46
2018-09-15T08:55:48.904Z,69.71
2018-09-15T08:56:51.564Z,68.97
2018-09-15T08:57:54.266Z,69.34
2018-09-15T08:58:56.918Z,68.36
2018-09-15T08:59:59.585Z,68.95
2018-09-15T09:01:02.261Z,69.63
2018-09-15T09:02:05.064Z,69.58
2018-09-15T09:03:07.972Z,68.77
2018-09-15T09:04:10.637Z,69.05
2018-09-15T09:05:13.294Z,69.02
2018-09-15T09:06:16.070Z,68.70
2018-09-15T09:07:18.735Z,68.00
2018-09-15T09:08:21.401Z,68.79
2018-09-15T09:09:24.094Z,68.30
2018-09-15T09:10:26.750Z,68.29
2018-09-15T09:11:29.418Z,69.08
2018-09-15T09:12:32.124Z,69.02
2018-09-15T09:13:34.792Z,68.36
2018-09-15T09:14:37.451Z,68.31
2018-09-15T09:15:40.137Z,68.42
2018-09-15T09:16:42.793Z,68.71
2018-09-15T09:17:45.448Z,68.79
2018-09-15T09:18:48.124Z,68.61
2018-09-15T09:19:50.797Z,68.19
2018-09-15T09:20:53.498Z,68.89
2018-09-15T09:21:56.168Z,68.83
2018-09-15T09:23:14.012Z,67.41
2018-09-15T09:24:16.692Z,67.98
2018-09-15T09:25:19.386Z,66.84
2018-09-15T09:26:22.133Z,66.56
2018-09-15T09:27:24.750Z,66.65
2018-09-15T09:28:27.600Z,67.56
2018-09-15T09:29:30.262Z,66.74
2018-09-15T09:30:32.944Z,64.59
2018-09-15T09:31:35.634Z,66.42
2018-09-15T09:32:38.323Z,66.63
2018-09-15T09:33:41.223Z,66.31
2018-09-15T09:34:43.928Z,65.29
2018-09-15T09:35:46.601Z,66.00
2018-09-15T09:36:49.260Z,66.77
2018-09-15T09:37:51.944Z,66.54
2018-09-15T09:38:54.660Z,66.36
2018-09-15T09:39:57.315Z,67.08
2018-09-15T09:40:59.996Z,66.95
2018-09-15T09:42:02.673Z,67.16
2018-09-15T09:43:05.413Z,66.93
2018-09-15T09:44:08.141Z,65.65
2018-09-15T09:45:10.803Z,65.11
2018-09-15T09:46:13.510Z,65.70
2018-09-15T09:47:16.170Z,65.99
2018-09-15T09:48:19.048Z,65.72
2018-09-15T09:49:21.645Z,65.12
2018-09-15T09:50:24.312Z,64.17
2018-09-15T09:51:26.988Z,64.55
2018-09-15T09:52:29.654Z,64.87
2018-09-15T09:53:32.317Z,64.23
2018-09-15T09:54:34.984Z,65.01
2018-09-15T09:55:37.656Z,63.67
2018-09-15T09:56:40.327Z,64.47
2018-09-15T09:57:43.007Z,64.64
2018-09-15T09:58:45.675Z,63.54
2018-09-15T09:59:48.366Z,64.05
2018-09-15T10:00:56.464Z,64.41
2018-09-15T10:02:29.933Z,63.15
2018-09-15T10:03:32.608Z,62.67
2018-09-15T10:04:35.294Z,63.06
2018-09-15T10:05:37.985Z,63.94
2018-09-15T10:06:40.725Z,63.37
2018-09-15T10:07:43.393Z,62.06
2018-09-15T10:08:46.083Z,63.70
2018-09-15T10:09:48.922Z,63.21
2018-09-15T10:10:51.566Z,63.21
2018-09-15T10:11:54.245Z,61.94
2018-09-15T10:12:56.907Z,61.57
2018-09-15T10:13:59.583Z,61.47
2018-09-15T10:15:02.272Z,62.59
2018-09-15T10:16:04.958Z,59.58
2018-09-15T10:17:07.638Z,59.83
2018-09-15T10:18:10.330Z,60.68
2018-09-15T10:19:12.997Z,60.54
2018-09-15T10:20:15.642Z,61.06
2018-09-15T10:21:18.311Z,61.63
2018-09-15T10:22:20.987Z,61.58
2018-09-15T10:23:23.634Z,61.13
2018-09-15T10:24:26.314Z,62.28
2018-09-15T10:25:28.986Z,62.02
2018-09-15T10:26:31.671Z,61.74
2018-09-15T10:27:34.346Z,61.67
2018-09-15T10:28:37.037Z,61.04
2018-09-15T10:29:39.708Z,61.42
2018-09-15T10:30:42.378Z,61.15
2018-09-15T10:31:45.024Z,61.87
2018-09-15T10:32:47.714Z,60.94
2018-09-15T10:33:50.391Z,60.42
2018-09-15T10:34:53.054Z,60.23
2018-09-15T10:35:55.934Z,60.82
2018-09-15T10:36:58.619Z,59.93
2018-09-15T10:38:01.297Z,59.95
2018-09-15T10:39:05.724Z,60.35
2018-09-15T10:40:08.410Z,61.06
2018-09-15T10:41:11.083Z,57.93
2018-09-15T10:42:13.761Z,59.35
2018-09-15T10:43:16.441Z,59.58
2018-09-15T10:44:19.110Z,60.00
2018-09-15T10:45:21.745Z,60.30
2018-09-15T10:46:24.418Z,60.59
2018-09-15T10:47:27.129Z,59.00
2018-09-15T10:48:29.784Z,60.15
2018-09-15T10:49:32.465Z,58.79
2018-09-15T10:50:35.257Z,59.42
2018-09-15T10:51:37.907Z,59.96
2018-09-15T10:52:40.576Z,58.12
2018-09-15T10:53:43.280Z,59.09
2018-09-15T10:54:46.046Z,59.98
2018-09-15T10:55:48.804Z,59.68
2018-09-15T10:56:51.480Z,58.80
2018-09-15T10:57:54.144Z,59.66
2018-09-15T10:58:56.884Z,59.86
2018-09-15T10:59:59.599Z,58.89
2018-09-15T11:01:02.438Z,57.46
2018-09-15T11:02:05.197Z,58.45
2018-09-15T11:03:07.882Z,58.78
2018-09-15T11:04:10.566Z,57.68
2018-09-15T11:05:13.260Z,58.84
2018-09-15T11:06:15.938Z,56.14
2018-09-15T11:07:18.827Z,56.83
2018-09-15T11:08:21.557Z,58.62
2018-09-15T11:09:24.220Z,57.45
2018-09-15T11:10:26.899Z,57.67
2018-09-15T11:11:29.575Z,56.45
2018-09-15T11:12:32.285Z,54.42
2018-09-15T11:13:34.976Z,53.30
2018-09-15T11:14:38.603Z,56.00
2018-09-15T11:15:41.414Z,54.39
2018-09-15T11:16:44.081Z,52.84
2018-09-15T11:17:46.786Z,54.50
2018-09-15T11:18:49.504Z,53.03
2018-09-15T11:19:52.240Z,54.63
2018-09-15T11:20:54.955Z,56.33
2018-09-15T11:21:57.674Z,55.72
2018-09-15T11:23:00.375Z,55.71
2018-09-15T11:24:03.088Z,55.48
2018-09-15T11:25:05.814Z,55.40
2018-09-15T11:26:08.514Z,56.14
2018-09-15T11:27:11.230Z,55.61
2018-09-15T11:28:13.933Z,55.27
2018-09-15T11:29:16.651Z,54.93
2018-09-15T11:30:19.358Z,55.77
2018-09-15T11:31:22.080Z,55.12
2018-09-15T11:32:24.766Z,55.78
2018-09-15T11:33:27.526Z,54.46
2018-09-15T11:34:30.256Z,55.44
2018-09-15T11:35:32.978Z,55.28
2018-09-15T11:36:35.677Z,56.48
2018-09-15T11:37:38.370Z,56.63
2018-09-15T11:38:41.085Z,55.66
2018-09-15T11:39:43.787Z,56.60
2018-09-15T11:40:46.496Z,56.79
2018-09-15T11:41:49.177Z,56.46
2018-09-15T11:42:52.008Z,56.00
2018-09-15T11:43:54.708Z,56.42
2018-09-15T11:44:57.401Z,57.00
2018-09-15T11:46:00.113Z,56.17
2018-09-15T11:47:02.838Z,55.23
2018-09-15T11:48:05.763Z,56.88
2018-09-15T11:49:08.425Z,56.31
2018-09-15T11:50:11.133Z,55.85
2018-09-15T11:51:13.848Z,56.12
2018-09-15T11:52:16.559Z,54.93
2018-09-15T11:53:19.350Z,53.54
2018-09-15T11:54:22.149Z,52.37
2018-09-15T11:55:24.910Z,54.95
2018-09-15T11:56:27.658Z,54.82
2018-09-15T11:57:30.333Z,55.45
2018-09-15T11:58:33.051Z,55.75
2018-09-15T11:59:35.746Z,55.77
2018-09-15T12:00:41.057Z,54.05
2018-09-15T12:01:43.753Z,54.60
2018-09-15T12:02:46.491Z,52.44
2018-09-15T12:03:49.164Z,53.52
2018-09-15T12:04:51.851Z,52.30
2018-09-15T12:05:54.617Z,52.66
2018-09-15T12:06:57.301Z,54.03
2018-09-15T12:08:00.004Z,53.77
2018-09-15T12:09:02.961Z,52.67
2018-09-15T12:10:05.673Z,53.92
2018-09-15T12:11:08.423Z,52.83
2018-09-15T12:12:11.116Z,53.13
2018-09-15T12:13:13.848Z,54.85
2018-09-15T12:14:16.611Z,54.41
2018-09-15T12:15:19.579Z,52.36
2018-09-15T12:16:22.346Z,50.41
2018-09-15T12:17:25.040Z,48.53
2018-09-15T12:18:27.737Z,51.25
2018-09-15T12:19:30.434Z,51.51
2018-09-15T12:20:33.187Z,51.95
2018-09-15T12:21:35.952Z,52.35
2018-09-15T12:22:38.615Z,50.76
2018-09-15T12:23:41.346Z,50.00
2018-09-15T12:24:44.070Z,50.08
2018-09-15T12:25:46.764Z,51.56
2018-09-15T12:26:49.480Z,52.65
2018-09-15T12:27:52.257Z,51.41
2018-09-15T12:28:54.940Z,51.91
2018-09-15T12:29:57.648Z,51.66
2018-09-15T12:31:00.365Z,52.47
2018-09-15T12:32:03.096Z,50.79
2018-09-15T12:33:05.902Z,48.94
2018-09-15T12:34:08.616Z,50.25
2018-09-15T12:35:11.332Z,50.13
2018-09-15T12:36:13.996Z,48.64
2018-09-15T12:37:16.694Z,49.48
2018-09-15T12:38:19.514Z,49.41
2018-09-15T12:39:22.219Z,50.70
2018-09-15T12:40:25.124Z,51.61
2018-09-15T12:41:27.848Z,49.45
2018-09-15T12:42:30.545Z,48.90
2018-09-15T12:43:34.119Z,49.64
2018-09-15T12:44:36.896Z,50.38
2018-09-15T12:45:39.613Z,50.40
2018-09-15T12:46:42.291Z,50.51
2018-09-15T12:47:44.964Z,51.00
2018-09-15T12:48:48.108Z,48.43
2018-09-15T12:49:50.885Z,50.41
2018-09-15T12:50:53.586Z,51.42
2018-09-15T12:51:56.302Z,52.59
2018-09-15T12:52:58.980Z,51.92
2018-09-15T12:54:01.648Z,52.15
2018-09-15T12:55:04.513Z,49.36
2018-09-15T12:56:07.193Z,49.67
2018-09-15T12:57:09.937Z,50.41
2018-09-15T12:58:12.616Z,50.96
2018-09-15T12:59:15.317Z,50.83
2018-09-15T13:00:18.085Z,47.79
2018-09-15T13:01:20.766Z,50.66
2018-09-15T13:02:23.439Z,51.29
2018-09-15T13:03:26.127Z,48.37
2018-09-15T13:04:28.803Z,48.60
2018-09-15T13:05:31.631Z,47.48
2018-09-15T13:06:34.410Z,50.12
2018-09-15T13:07:37.058Z,46.98
2018-09-15T13:08:39.747Z,47.82
2018-09-15T13:09:42.441Z,47.81
2018-09-15T13:10:45.295Z,47.93
2018-09-15T13:11:47.958Z,48.31
2018-09-15T13:12:50.661Z,46.58
2018-09-15T13:13:53.318Z,45.83
2018-09-15T13:14:56.000Z,47.32
2018-09-15T13:15:58.773Z,47.69
2018-09-15T13:17:01.482Z,46.13
2018-09-15T13:18:04.213Z,48.53
2018-09-15T13:19:06.925Z,45.60
2018-09-15T13:20:09.649Z,45.91
2018-09-15T13:21:12.452Z,47.55
2018-09-15T13:22:15.132Z,46.42
2018-09-15T13:23:17.839Z,46.17
2018-09-15T13:24:20.520Z,46.40
2018-09-15T13:25:23.190Z,47.07
2018-09-15T13:26:25.984Z,46.23
2018-09-15T13:27:28.735Z,44.56
2018-09-15T13:28:31.399Z,46.80
2018-09-15T13:29:34.182Z,47.05
2018-09-15T13:30:36.855Z,47.41
2018-09-15T13:31:39.667Z,48.67
2018-09-15T13:32:42.379Z,45.81
2018-09-15T13:33:45.038Z,47.75